createdAt,value
2018-05-08T00:00:01.025Z,71.00
2018-05-08T00:02:27.995Z,70.90
2018-05-08T00:04:54.945Z,70.50
2018-05-08T00:07:21.935Z,71.30
2018-05-08T00:09:49.665Z,70.80
2018-05-08T00:12:17.078Z,70.80
2018-05-08T00:14:44.494Z,71.20
2018-05-08T00:17:11.899Z,70.70
2018-05-08T00:19:39.658Z,70.70
2018-05-08T00:22:07.378Z,70.90
2018-05-08T00:24:34.350Z,70.60
2018-05-08T00:27:01.317Z,71.20
2018-05-08T00:29:28.275Z,71.10
2018-05-08T00:31:55.228Z,71.60
2018-05-08T00:34:22.958Z,71.90
2018-05-08T00:36:49.918Z,71.90
2018-05-08T00:39:17.343Z,72.20
2018-05-08T00:41:45.519Z,72.90
2018-05-08T00:44:12.938Z,72.90
2018-05-08T00:46:40.670Z,73.10
2018-05-08T00:49:07.650Z,73.00
2018-05-08T00:51:34.614Z,72.90
2018-05-08T00:54:01.637Z,72.20
2018-05-08T00:56:28.603Z,73.00
2018-05-08T00:58:55.559Z,73.00
2018-05-08T01:01:22.541Z,72.40
2018-05-08T01:03:49.529Z,72.40
2018-05-08T01:06:16.495Z,72.30
2018-05-08T01:08:43.454Z,72.90
2018-05-08T01:11:10.422Z,73.50
2018-05-08T01:13:37.382Z,73.00
2018-05-08T01:16:04.362Z,74.10
2018-05-08T01:18:32.107Z,73.80
2018-05-08T01:20:59.826Z,73.90
2018-05-08T01:23:27.558Z,73.70
2018-05-08T01:25:54.536Z,73.20
2018-05-08T01:28:22.261Z,74.00
2018-05-08T01:30:49.227Z,73.90
2018-05-08T01:33:16.198Z,73.70
2018-05-08T01:35:43.165Z,75.10
2018-05-08T01:38:10.127Z,74.30
2018-05-08T01:40:37.103Z,74.50
2018-05-08T01:43:04.066Z,75.10
2018-05-08T01:45:31.802Z,75.30
2018-05-08T01:47:58.787Z,75.40
2018-05-08T01:50:26.178Z,74.80
2018-05-08T01:52:54.351Z,76.90
2018-05-08T01:55:22.531Z,76.50
2018-05-08T01:57:49.501Z,76.50
2018-05-08T02:00:16.470Z,78.20
2018-05-08T02:02:44.219Z,78.30
2018-05-08T02:05:11.954Z,78.50
2018-05-08T02:07:39.682Z,79.40
2018-05-08T02:10:06.659Z,78.60
2018-05-08T02:12:34.386Z,77.50
2018-05-08T02:15:02.107Z,79.20
2018-05-08T02:17:29.099Z,79.10
2018-05-08T02:19:56.066Z,79.40
2018-05-08T02:22:23.052Z,79.10
2018-05-08T02:24:50.030Z,80.30
2018-05-08T02:27:17.001Z,79.40
2018-05-08T02:29:43.991Z,80.10
2018-05-08T02:32:10.976Z,80.80
2018-05-08T02:34:38.717Z,81.20
2018-05-08T02:37:06.516Z,81.60
2018-05-08T02:39:33.486Z,81.50
2018-05-08T02:42:01.226Z,82.50
2018-05-08T02:44:28.218Z,82.60
2018-05-08T02:46:55.182Z,83.90
2018-05-08T02:49:22.203Z,81.50
2018-05-08T02:51:49.175Z,82.60
2018-05-08T02:54:16.146Z,81.70
2018-05-08T02:56:43.115Z,82.20
2018-05-08T02:59:10.857Z,81.50
2018-05-08T03:01:38.254Z,81.40
2018-05-08T03:04:05.711Z,81.10
2018-05-08T03:06:33.136Z,83.30
2018-05-08T03:09:00.540Z,83.40
2018-05-08T03:11:28.705Z,83.90
2018-05-08T03:13:56.113Z,83.90
2018-05-08T03:16:23.519Z,83.80
2018-05-08T03:18:50.938Z,83.30
2018-05-08T03:21:18.332Z,84.00
2018-05-08T03:23:45.750Z,83.30
2018-05-08T03:26:13.142Z,84.00
2018-05-08T03:28:41.327Z,84.10
2018-05-08T03:31:08.739Z,84.00
2018-05-08T03:33:36.914Z,83.70
2018-05-08T03:36:04.338Z,83.70
2018-05-08T03:38:31.731Z,85.00
2018-05-08T03:40:59.164Z,84.90
2018-05-08T03:43:26.591Z,82.70
2018-05-08T03:45:53.982Z,85.00
2018-05-08T03:48:22.166Z,85.20
2018-05-08T03:50:50.342Z,83.60
2018-05-08T03:53:17.758Z,83.50
2018-05-08T03:55:45.942Z,83.70
2018-05-08T03:58:13.364Z,83.60
2018-05-08T04:00:47.143Z,82.10
2018-05-08T04:03:20.786Z,83.20
2018-05-08T04:08:43.114Z,83.50
2018-05-08T04:11:10.079Z,83.50
2018-05-08T04:13:37.499Z,83.70
2018-05-08T04:16:04.445Z,84.90
2018-05-08T04:18:31.420Z,85.60
2018-05-08T04:20:58.530Z,87.30
2018-05-08T04:23:25.475Z,88.80
2018-05-08T04:25:52.460Z,88.80
2018-05-08T04:28:20.195Z,90.00
2018-05-08T04:30:47.154Z,90.00
2018-05-08T04:33:15.331Z,91.10
2018-05-08T04:35:42.306Z,91.20
2018-05-08T04:38:09.287Z,91.20
2018-05-08T04:40:37.023Z,90.90
2018-05-08T04:43:03.979Z,90.90
2018-05-08T04:45:30.974Z,90.60
2018-05-08T04:47:58.735Z,88.30
2018-05-08T04:50:25.716Z,88.20
2018-05-08T04:52:53.111Z,88.80
2018-05-08T04:55:20.834Z,87.00
2018-05-08T04:57:47.806Z,86.70
2018-05-08T05:00:15.550Z,88.50
2018-05-08T05:02:43.378Z,86.00
2018-05-08T05:05:10.715Z,85.90
2018-05-08T05:07:37.684Z,87.20
2018-05-08T05:10:05.876Z,88.20
2018-05-08T05:12:32.831Z,88.20
2018-05-08T05:15:00.238Z,87.50
2018-05-08T05:17:27.642Z,87.80
2018-05-08T05:19:55.388Z,87.30
2018-05-08T05:22:23.106Z,87.30
2018-05-08T05:24:50.078Z,87.30
2018-05-08T05:27:17.048Z,87.90
2018-05-08T05:29:44.020Z,87.00
2018-05-08T05:32:11.758Z,86.70
2018-05-08T05:34:38.722Z,86.70
2018-05-08T05:37:05.690Z,87.70
2018-05-08T05:39:32.651Z,88.00
2018-05-08T05:41:59.636Z,88.40
2018-05-08T05:44:26.590Z,87.00
2018-05-08T05:46:53.550Z,87.00
2018-05-08T05:49:21.298Z,88.10
2018-05-08T05:51:48.246Z,87.30
2018-05-08T05:54:15.978Z,88.00
2018-05-08T05:56:43.714Z,86.70
2018-05-08T05:59:10.690Z,86.60
2018-05-08T06:01:38.426Z,86.30
2018-05-08T06:04:06.607Z,86.30
2018-05-08T06:06:33.571Z,86.20
2018-05-08T06:09:00.538Z,87.40
2018-05-08T06:11:28.262Z,84.00
2018-05-08T06:13:55.248Z,83.90
2018-05-08T06:16:22.972Z,85.60
2018-05-08T06:18:49.915Z,85.50
2018-05-08T06:21:16.894Z,86.40
2018-05-08T06:23:43.879Z,83.50
2018-05-08T06:26:11.297Z,82.30
2018-05-08T06:28:39.504Z,80.30
2018-05-08T06:31:06.895Z,81.00
2018-05-08T06:33:35.074Z,79.50
2018-05-08T06:36:02.487Z,79.50
2018-05-08T06:38:30.658Z,80.00
2018-05-08T06:40:58.839Z,78.70
2018-05-08T06:43:25.798Z,78.70
2018-05-08T06:45:52.778Z,79.50
2018-05-08T06:48:20.502Z,78.90
2018-05-08T06:50:47.471Z,78.80
2018-05-08T06:53:14.430Z,79.40
2018-05-08T06:55:41.404Z,79.30
2018-05-08T06:58:08.795Z,78.40
2018-05-08T07:00:36.218Z,79.00
2018-05-08T07:03:03.631Z,80.60
2018-05-08T07:05:31.811Z,80.00
2018-05-08T07:07:59.228Z,80.00
2018-05-08T07:10:26.649Z,79.30
2018-05-08T07:12:54.056Z,77.90
2018-05-08T07:15:21.468Z,78.60
2018-05-08T07:17:48.872Z,77.60
2018-05-08T07:20:16.276Z,76.70
2018-05-08T07:22:43.699Z,76.50
2018-05-08T07:25:11.108Z,77.00
2018-05-08T07:27:38.517Z,77.10
2018-05-08T07:30:05.970Z,73.90
2018-05-08T07:32:33.331Z,75.70
2018-05-08T07:35:01.499Z,73.00
2018-05-08T07:37:29.675Z,72.90
2018-05-08T07:39:57.851Z,73.20
2018-05-08T07:42:25.263Z,73.20
2018-05-08T07:44:53.427Z,70.00
2018-05-08T07:47:21.598Z,68.90
2018-05-08T07:49:49.020Z,68.90
2018-05-08T07:52:17.184Z,70.30
2018-05-08T07:54:45.359Z,69.60
2018-05-08T07:57:12.759Z,69.70
2018-05-08T07:59:40.946Z,68.30
2018-05-08T08:02:08.678Z,68.00
2018-05-08T08:04:35.630Z,67.90
2018-05-08T08:07:02.611Z,67.00
2018-05-08T08:09:30.018Z,65.90
2018-05-08T08:11:56.998Z,67.00
2018-05-08T08:14:23.962Z,67.30
2018-05-08T08:16:51.390Z,65.10
2018-05-08T08:19:19.142Z,66.10
2018-05-08T08:21:46.081Z,66.10
2018-05-08T08:24:13.503Z,63.90
2018-05-08T08:26:40.914Z,64.10
2018-05-08T08:29:08.315Z,64.40
2018-05-08T08:31:35.760Z,67.20
2018-05-08T08:34:03.157Z,62.40
2018-05-08T08:36:30.588Z,65.10
2018-05-08T08:38:57.998Z,64.00
2018-05-08T08:41:25.452Z,62.10
2018-05-08T08:43:52.864Z,62.60
2018-05-08T08:46:19.818Z,64.10
2018-05-08T08:48:46.786Z,62.10
2018-05-08T08:51:13.747Z,59.90
2018-05-08T08:53:40.718Z,59.50
2018-05-08T08:56:07.730Z,61.70
2018-05-08T08:58:35.423Z,59.60
2018-05-08T09:01:04.362Z,59.00
2018-05-08T09:03:31.338Z,59.10
2018-05-08T09:05:59.104Z,60.30
2018-05-08T09:08:26.050Z,60.20
2018-05-08T09:10:53.011Z,59.90
2018-05-08T09:13:19.996Z,59.60
2018-05-08T09:15:47.722Z,60.20
2018-05-08T09:18:14.694Z,59.90
2018-05-08T09:20:42.098Z,58.30
2018-05-08T09:23:09.516Z,57.40
2018-05-08T09:25:36.921Z,57.60
2018-05-08T09:28:03.891Z,55.60
2018-05-08T09:30:31.332Z,55.00
2018-05-08T09:32:58.807Z,57.20
2018-05-08T09:35:26.451Z,56.90
2018-05-08T09:37:54.198Z,54.60
2018-05-08T09:40:21.954Z,55.90
2018-05-08T09:42:49.690Z,54.70
2018-05-08T09:45:17.462Z,52.30
2018-05-08T09:47:45.639Z,52.00
2018-05-08T09:50:12.607Z,52.00
2018-05-08T09:52:39.575Z,51.30
2018-05-08T09:55:07.302Z,53.70
2018-05-08T09:57:34.714Z,53.60
2018-05-08T10:00:01.678Z,50.10
2018-05-08T10:02:29.426Z,52.40
2018-05-08T10:04:56.847Z,52.30
2018-05-08T10:07:24.252Z,53.70
2018-05-08T10:09:51.657Z,51.30
2018-05-08T10:12:19.831Z,51.10
2018-05-08T10:14:47.243Z,51.00
2018-05-08T10:17:14.743Z,52.30
2018-05-08T10:19:42.150Z,49.10
2018-05-08T10:22:10.340Z,51.70
2018-05-08T10:24:37.742Z,51.70
2018-05-08T10:27:05.918Z,50.10
2018-05-08T10:29:33.646Z,50.00
2018-05-08T10:32:01.823Z,51.50
2018-05-08T10:34:29.554Z,48.80
2018-05-08T10:36:57.735Z,47.40
2018-05-08T10:39:25.146Z,47.30
2018-05-08T10:41:52.886Z,52.20
2018-05-08T10:44:20.312Z,51.90
2018-05-08T10:46:47.275Z,49.70
2018-05-08T10:49:15.451Z,48.10
2018-05-08T10:51:42.864Z,47.80
2018-05-08T10:54:09.820Z,46.20
2018-05-08T10:56:37.222Z,45.30
2018-05-08T10:59:04.248Z,46.00
2018-05-08T11:01:31.214Z,44.10
2018-05-08T11:03:58.956Z,42.70
2018-05-08T11:06:26.731Z,40.90
2018-05-08T11:08:53.695Z,40.90
2018-05-08T11:11:20.658Z,44.10
2018-05-08T11:13:47.617Z,41.50
2018-05-08T11:16:14.602Z,39.00
2018-05-08T11:18:41.583Z,40.20
2018-05-08T11:21:08.548Z,39.70
2018-05-08T11:23:35.531Z,39.20
2018-05-08T11:26:03.270Z,35.00
2018-05-08T11:28:31.015Z,35.90
2018-05-08T11:30:57.983Z,35.90
2018-05-08T11:33:24.950Z,37.40
2018-05-08T11:35:51.909Z,36.50
2018-05-08T11:38:19.648Z,35.50
2018-05-08T11:40:47.397Z,36.50
2018-05-08T11:43:14.362Z,36.50
2018-05-08T11:45:41.327Z,35.40
2018-05-08T11:48:08.288Z,33.00
2018-05-08T11:50:35.249Z,36.50
2018-05-08T11:53:02.222Z,34.30
2018-05-08T11:55:29.199Z,34.70
2018-05-08T11:57:56.938Z,33.40
2018-05-08T12:00:24.678Z,34.90
2018-05-08T12:02:51.651Z,34.70
2018-05-08T12:05:18.627Z,37.00
2018-05-08T12:07:45.582Z,33.30
2018-05-08T12:10:13.314Z,33.80
2018-05-08T12:12:40.283Z,33.40
2018-05-08T12:15:07.702Z,29.90
2018-05-08T12:17:35.465Z,30.80
2018-05-08T12:20:03.201Z,32.90
2018-05-08T12:22:30.926Z,32.60
2018-05-08T12:24:57.886Z,32.50
2018-05-08T12:27:25.653Z,30.50
2018-05-08T12:29:52.614Z,30.40
2018-05-08T12:32:19.574Z,31.20
2018-05-08T12:34:46.999Z,31.60
2018-05-08T12:37:13.976Z,33.20
2018-05-08T12:39:40.947Z,32.20
2018-05-08T12:42:07.941Z,29.50
2018-05-08T12:44:34.883Z,30.80
2018-05-08T12:47:01.842Z,31.10
2018-05-08T12:49:28.798Z,31.10
2018-05-08T12:51:55.777Z,30.80
2018-05-08T12:54:22.743Z,33.70
2018-05-08T12:56:49.710Z,32.20
2018-05-08T12:59:16.691Z,29.90
2018-05-08T13:01:43.667Z,31.30
2018-05-08T13:04:11.390Z,31.60
2018-05-08T13:06:38.382Z,31.60
2018-05-08T13:09:05.782Z,32.20
2018-05-08T13:11:33.528Z,31.80
2018-05-08T13:14:00.487Z,31.20
2018-05-08T13:16:27.463Z,31.70
2018-05-08T13:18:54.436Z,32.00
2018-05-08T13:21:22.164Z,30.60
2018-05-08T13:23:49.162Z,30.50
2018-05-08T13:26:16.096Z,32.80
2018-05-08T13:28:43.052Z,28.30
2018-05-08T13:31:10.853Z,29.10
2018-05-08T13:33:38.223Z,29.00
2018-05-08T13:36:05.639Z,29.90
2018-05-08T13:38:32.603Z,31.00
2018-05-08T13:41:00.009Z,28.70
2018-05-08T13:43:26.968Z,29.30
2018-05-08T13:45:54.382Z,28.50
2018-05-08T13:48:21.797Z,30.00
2018-05-08T13:50:49.605Z,28.40
2018-05-08T13:53:16.563Z,28.50
2018-05-08T13:55:44.293Z,28.50
2018-05-08T13:58:12.763Z,30.00
2018-05-08T14:00:39.722Z,30.00
2018-05-08T14:03:06.700Z,28.50
2018-05-08T14:05:34.091Z,29.40
2018-05-08T14:08:01.852Z,29.90
2018-05-08T14:10:28.807Z,29.90
2018-05-08T14:12:55.775Z,28.70
2018-05-08T14:15:22.764Z,27.60
2018-05-08T14:17:49.749Z,28.20
2018-05-08T14:20:17.500Z,29.70
2018-05-08T14:22:44.494Z,29.70
2018-05-08T14:25:11.460Z,30.40
2018-05-08T14:27:38.458Z,29.10
2018-05-08T14:30:05.457Z,28.60
2018-05-08T14:32:32.867Z,27.80
2018-05-08T14:35:00.592Z,29.30
2018-05-08T14:37:27.567Z,29.40
2018-05-08T14:39:54.532Z,29.70
2018-05-08T14:42:21.495Z,29.00
2018-05-08T14:44:49.248Z,26.80
2018-05-08T14:47:16.676Z,26.80
2018-05-08T14:49:44.083Z,28.00
2018-05-08T14:52:11.062Z,30.50
2018-05-08T14:54:38.825Z,28.30
2018-05-08T14:57:06.555Z,28.80
2018-05-08T14:59:34.427Z,30.10
2018-05-08T15:02:01.419Z,29.80
2018-05-08T15:04:28.496Z,29.60
2018-05-08T15:06:55.446Z,27.70
2018-05-08T15:09:22.460Z,29.20
2018-05-08T15:11:49.412Z,27.40
2018-05-08T15:14:17.543Z,29.70
2018-05-08T15:16:44.522Z,29.70
2018-05-08T15:19:11.498Z,28.70
2018-05-08T15:21:39.234Z,28.80
2018-05-08T15:24:06.984Z,29.10
2018-05-08T15:26:33.938Z,29.20
2018-05-08T15:29:00.989Z,28.50
2018-05-08T15:31:27.894Z,27.90
2018-05-08T15:33:55.627Z,28.10
2018-05-08T15:36:23.386Z,28.70
2018-05-08T15:38:51.118Z,29.40
2018-05-08T15:41:18.531Z,28.90
2018-05-08T15:43:45.940Z,27.50
2018-05-08T15:46:12.894Z,27.80
2018-05-08T15:48:39.857Z,27.60
2018-05-08T15:51:06.818Z,29.10
2018-05-08T15:53:34.223Z,27.80
2018-05-08T15:56:01.215Z,28.80
2018-05-08T15:58:28.186Z,28.20
2018-05-08T16:00:55.138Z,27.60
2018-05-08T16:03:22.870Z,27.50
2018-05-08T16:05:49.847Z,27.50
2018-05-08T16:08:16.818Z,28.20
2018-05-08T16:10:43.837Z,27.60
2018-05-08T16:13:10.870Z,27.00
2018-05-08T16:15:37.834Z,29.30
2018-05-08T16:18:05.575Z,28.30
2018-05-08T16:20:33.341Z,29.10
2018-05-08T16:23:01.071Z,26.70
2018-05-08T16:25:29.249Z,28.00
2018-05-08T16:27:57.416Z,27.70
2018-05-08T16:30:25.197Z,27.90
2018-05-08T16:32:52.915Z,29.40
2018-05-08T16:35:20.331Z,29.40
2018-05-08T16:37:47.753Z,28.40
2018-05-08T16:40:15.159Z,28.20
2018-05-08T16:42:42.567Z,28.10
2018-05-08T16:45:10.738Z,29.10
2018-05-08T16:47:38.163Z,29.10
2018-05-08T16:50:06.348Z,28.50
2018-05-08T16:52:33.775Z,28.50
2018-05-08T16:55:01.956Z,29.10
2018-05-08T16:57:29.373Z,29.10
2018-05-08T16:59:57.556Z,29.40
2018-05-08T17:02:24.977Z,29.40
2018-05-08T17:04:53.249Z,28.40
2018-05-08T17:07:20.631Z,28.30
2018-05-08T17:09:48.037Z,28.80
2018-05-08T17:12:15.443Z,27.80
2018-05-08T17:14:43.619Z,29.20
2018-05-08T17:17:11.799Z,28.50
2018-05-08T17:19:39.205Z,28.50
2018-05-08T17:22:07.403Z,28.70
2018-05-08T17:24:34.806Z,28.60
2018-05-08T17:27:02.988Z,28.90
2018-05-08T17:29:30.398Z,28.80
2018-05-08T17:31:57.804Z,29.60
2018-05-08T17:34:25.215Z,29.20
2018-05-08T17:36:52.634Z,30.50
2018-05-08T17:39:20.075Z,30.40
2018-05-08T17:41:48.231Z,30.90
2018-05-08T17:44:16.427Z,31.20
2018-05-08T17:46:43.847Z,31.20
2018-05-08T17:49:11.256Z,31.30
2018-05-08T17:51:38.680Z,32.20
2018-05-08T17:54:06.108Z,33.30
2018-05-08T17:56:33.516Z,32.70
2018-05-08T17:59:00.931Z,34.40
2018-05-08T18:01:29.115Z,34.70
2018-05-08T18:03:56.601Z,34.10
2018-05-08T18:06:24.702Z,35.10
2018-05-08T18:08:52.905Z,35.30
2018-05-08T18:11:20.386Z,35.30
2018-05-08T18:13:48.480Z,36.90
2018-05-08T18:16:15.903Z,36.70
2018-05-08T18:18:44.102Z,35.10
2018-05-08T18:21:11.504Z,35.20
2018-05-08T18:23:39.676Z,36.00
2018-05-08T18:26:07.083Z,35.90
2018-05-08T18:28:34.495Z,35.70
2018-05-08T18:31:01.909Z,36.70
2018-05-08T18:33:29.306Z,37.00
2018-05-08T18:35:56.707Z,37.30
2018-05-08T18:38:24.120Z,37.60
2018-05-08T18:40:51.533Z,38.00
2018-05-08T18:43:18.927Z,38.30
2018-05-08T18:45:46.342Z,37.00
2018-05-08T18:48:13.768Z,38.20
2018-05-08T18:50:41.959Z,39.00
2018-05-08T18:53:09.367Z,39.00
2018-05-08T18:55:37.580Z,39.20
2018-05-08T18:58:04.991Z,39.20
2018-05-08T19:00:38.076Z,39.80
2018-05-08T19:03:05.475Z,39.40
2018-05-08T19:05:33.662Z,39.60
2018-05-08T19:08:01.094Z,39.60
2018-05-08T19:10:29.267Z,40.20
2018-05-08T19:12:56.679Z,40.20
2018-05-08T19:15:29.651Z,39.80
2018-05-08T19:17:57.822Z,41.40
2018-05-08T19:20:26.028Z,40.60
2018-05-08T19:22:53.426Z,40.60
2018-05-08T19:25:21.607Z,41.00
2018-05-08T19:27:49.018Z,41.00
2018-05-08T19:30:22.851Z,42.30
2018-05-08T19:32:50.247Z,42.30
2018-05-08T19:35:23.962Z,42.60
2018-05-08T19:37:57.039Z,42.50
2018-05-08T19:40:24.449Z,42.00
2018-05-08T19:42:52.610Z,43.30
2018-05-08T19:45:20.783Z,45.90
2018-05-08T19:47:48.196Z,45.90
2018-05-08T19:50:15.604Z,46.60
2018-05-08T19:52:43.003Z,45.10
2018-05-08T19:55:10.421Z,44.10
2018-05-08T19:57:37.833Z,45.40
2018-05-08T20:00:05.233Z,44.80
2018-05-08T20:02:32.663Z,44.00
2018-05-08T20:05:00.893Z,44.20
2018-05-08T20:07:28.279Z,44.20
2018-05-08T20:09:55.674Z,44.30
2018-05-08T20:12:23.083Z,43.60
2018-05-08T20:14:50.495Z,44.70
2018-05-08T20:17:17.902Z,44.80
2018-05-08T20:19:45.303Z,44.20
2018-05-08T20:22:12.258Z,43.90
2018-05-08T20:24:39.242Z,44.20
2018-05-08T20:27:06.671Z,44.40
2018-05-08T20:29:34.447Z,45.10
2018-05-08T20:32:01.876Z,46.10
2018-05-08T20:34:29.276Z,45.00
2018-05-08T20:36:56.247Z,44.90
2018-05-08T20:39:23.229Z,46.20
2018-05-08T20:41:50.187Z,46.20
2018-05-08T20:44:18.355Z,45.70
2018-05-08T20:46:45.339Z,45.80
2018-05-08T20:49:12.334Z,45.80
2018-05-08T20:51:39.283Z,46.70
2018-05-08T20:54:06.675Z,47.80
2018-05-08T20:56:34.866Z,48.00
2018-05-08T20:59:01.848Z,47.90
2018-05-08T21:01:29.675Z,47.90
2018-05-08T21:03:56.646Z,47.70
2018-05-08T21:06:24.383Z,47.30
2018-05-08T21:08:51.799Z,47.30
2018-05-08T21:11:18.758Z,47.70
2018-05-08T21:13:45.711Z,47.20
2018-05-08T21:16:12.670Z,46.90
2018-05-08T21:18:40.091Z,46.80
2018-05-08T21:21:07.500Z,46.80
2018-05-08T21:23:34.915Z,47.30
2018-05-08T21:26:02.319Z,47.40
2018-05-08T21:28:35.047Z,47.60
2018-05-08T21:31:07.642Z,48.30
2018-05-08T21:33:34.611Z,48.40
2018-05-08T21:36:01.584Z,48.40
2018-05-08T21:38:29.302Z,48.90
2018-05-08T21:40:56.263Z,48.90
2018-05-08T21:43:24.439Z,49.30
2018-05-08T21:45:51.842Z,49.20
2018-05-08T21:48:19.247Z,49.40
2018-05-08T21:50:46.660Z,49.20
2018-05-08T21:53:14.068Z,50.50
2018-05-08T21:55:41.475Z,50.70
2018-05-08T21:58:08.876Z,51.60
2018-05-08T22:00:36.280Z,50.60
2018-05-08T22:03:03.686Z,50.60
2018-05-08T22:05:31.103Z,50.70
2018-05-08T22:07:58.511Z,51.70
2018-05-08T22:10:25.926Z,52.10
2018-05-08T22:12:52.906Z,52.70
2018-05-08T22:15:20.631Z,52.30
2018-05-08T22:17:47.588Z,52.20
2018-05-08T22:20:15.789Z,51.90
2018-05-08T22:22:43.172Z,51.90
2018-05-08T22:25:11.351Z,51.30
2018-05-08T22:27:38.781Z,51.30
2018-05-08T22:30:06.944Z,53.30
2018-05-08T22:32:35.133Z,54.60
2018-05-08T22:35:02.533Z,54.50
2018-05-08T22:37:30.720Z,53.80
2018-05-08T22:39:58.130Z,53.80
2018-05-08T22:42:26.323Z,54.00
2018-05-08T22:44:53.727Z,54.00
2018-05-08T22:47:21.905Z,54.90
2018-05-08T22:49:50.079Z,55.30
2018-05-08T22:52:17.502Z,55.30
2018-05-08T22:54:45.670Z,54.30
2018-05-08T22:57:13.070Z,54.30
2018-05-08T22:59:40.484Z,54.30
2018-05-08T23:02:07.903Z,54.80
2018-05-08T23:04:34.857Z,55.50
2018-05-08T23:07:01.832Z,56.10
2018-05-08T23:09:29.228Z,57.00
2018-05-08T23:11:56.643Z,58.20
2018-05-08T23:14:24.039Z,58.00
2018-05-08T23:16:50.998Z,57.80
2018-05-08T23:19:18.727Z,58.60
2018-05-08T23:21:45.702Z,58.60
2018-05-08T23:24:12.668Z,59.00
2018-05-08T23:26:39.633Z,59.60
2018-05-08T23:29:07.363Z,59.90
2018-05-08T23:31:34.329Z,59.80
2018-05-08T23:34:01.316Z,59.80
2018-05-08T23:36:28.278Z,59.30
2018-05-08T23:38:56.021Z,60.20
2018-05-08T23:41:23.763Z,61.30
2018-05-08T23:43:50.710Z,61.20
2018-05-08T23:46:18.442Z,62.30
2018-05-08T23:48:46.198Z,62.80
2018-05-08T23:51:13.929Z,63.40
2018-05-08T23:53:40.906Z,63.40
2018-05-08T23:56:07.870Z,64.20
2018-05-08T23:58:34.856Z,64.70
